BIRKCYFB

Guest
Details From BIRK - Reykjavik
To CYFB - Iqaluit
Flight Number -
Tags Generated
Created
Modified
Stats Distance 1,204 nm / 2,229 km
Max Altitude 0 ft / 0 m
Waypoints 3
Social Downloads 2
Likes 0
Share VATSIM

Download

Looking for another format? Having issues loading an existing format? Contact us
Advertisement - Login to hide

Notes

Generated

Route

BIRK YFB CYFB

ID Type Via Altitude Latitude Longitude Leg Dist Tot Dist Heading (true) Name
O BIRK APT - 0 ft / 0 m 64.12743˚ -21.94699˚ - 0 nm - -
YFB VOR - 0 ft / 0 m 63.74167˚ -68.47333˚ 1200 nm 1200 nm 290° / 248° FROBAY VOR
O CYFB APT - 0 ft / 0 m 63.76497˚ -68.57398˚ 3 nm 1203 nm 298° / 298° -

Altitude Profile

Advertisement - Login to hide

Weather


0- 5 10 15 20 25 30 35+ Temperature / ° C

Clouds and Precipitation
Forecast for 2017-12-11 18:00 UTC. Updated 14 minutes ago

Ground ~20,000 ft ~40,000 ft Winds

BIRK

Details ICAO BIRK (RKV)
Name Reykjavik
Region Iceland
Timezone Atlantic/Reykjavik (UTC+0.0)
Stats Elevation 47 ft / 14 m (AMSL)
Location 64.129644° -21.940609°
Runways 3
Magnetic Variation 13.777° W

METAR

BIRK 111300Z 07009KT 9999 FEW025 M04/M09 Q1002

Decode

TAF

TAF BIRK 110735Z 1109/1209 11005KT CAVOK TX04/1206Z TNM08/1107Z BECMG 1112/1115 11015KT 9999 FEW030 BKN050 BECMG 1118/1120 12018G28KT PROB40 TEMPO 1120/1122 3000 -SN OVC012 PROB40 TEMPO 1122/1124 2000 SNRA OVC010 BECMG 1121/1124 13028G38KT RA BKN015 OVC025 FM120700 16015KT SHRA FEW015 BKN030

Decode

Departure Runways

ID Width Length Bearing (true) Bearing (mag) Surface Threshold Offset Overrun Length
01 148 ft / 45 m 5,129 ft / 1,563 m 355.27° 9.05° Asphalt 262 ft / 80 m 0 ft / 0 m
06 98 ft / 30 m 2,800 ft / 853 m 46.35° 60.13° Asphalt 299 ft / 91 m 0 ft / 0 m
13 148 ft / 45 m 4,023 ft / 1,226 m 116.28° 130.06° Asphalt 0 ft / 0 m 0 ft / 0 m
19 148 ft / 45 m 5,129 ft / 1,563 m 175.27° 189.05° Asphalt 0 ft / 0 m 0 ft / 0 m
24 98 ft / 30 m 2,800 ft / 853 m 226.37° 240.15° Asphalt 0 ft / 0 m 0 ft / 0 m
31 148 ft / 45 m 4,023 ft / 1,226 m 296.30° 310.08° Asphalt 213 ft / 65 m 0 ft / 0 m

CYFB

Details ICAO CYFB (YFB)
Name Iqaluit
Region Canada
Timezone America/Iqaluit (UTC-5.0)
Stats Elevation 110 ft / 34 m (AMSL)
Location 63.756565° -68.556058°
Runways 1
Magnetic Variation 27.546° W

METAR

CYFB 111300Z 32010G16KT 15SM FEW030 M22/M24 A2942 RMK SC1 SC TR SLP967

Decode

TAF

TAF TAF CYFB 111138Z 1112/1212 32010KT P6SM FEW030 TEMPO 1112/1116 4SM IC BKN020 FM111600 32006KT P6SM BKN030 TEMPO 1116/1124 4SM -SN OVC020 FM120000 32006KT P6SM -SN BKN025 TEMPO 1200/1212 4SM -SN OVC015 RMK NXT FCST BY 111800Z

Decode

Destination Runways

ID Width Length Bearing (true) Bearing (mag) Surface Threshold Offset Overrun Length
17 200 ft / 61 m 8,605 ft / 2,623 m 135.58° 163.13° Asphalt 0 ft / 0 m 210 ft / 64 m
35 200 ft / 61 m 8,605 ft / 2,623 m 315.62° 343.17° Asphalt 0 ft / 0 m 243 ft / 74 m

Popular Alternatives